createdAt,value
2018-03-20T00:00:21.169Z,1009.00
2018-03-20T00:01:20.239Z,1008.99
2018-03-20T00:02:20.274Z,1008.97
2018-03-20T00:03:20.274Z,1009.02
2018-03-20T00:04:20.291Z,1008.99
2018-03-20T00:05:20.311Z,1008.98
2018-03-20T00:06:20.341Z,1009.01
2018-03-20T00:07:20.356Z,1008.99
2018-03-20T00:08:20.372Z,1008.97
2018-03-20T00:09:20.387Z,1008.96
2018-03-20T00:10:20.425Z,1008.95
2018-03-20T00:11:20.436Z,1008.93
2018-03-20T00:12:20.459Z,1008.97
2018-03-20T00:13:21.178Z,1008.98
2018-03-20T00:14:20.493Z,1008.98
2018-03-20T00:15:20.529Z,1008.97
2018-03-20T00:16:20.537Z,1008.96
2018-03-20T00:17:20.551Z,1008.94
2018-03-20T00:18:20.577Z,1008.95
2018-03-20T00:19:20.593Z,1008.94
2018-03-20T00:20:20.609Z,1008.98
2018-03-20T00:21:20.631Z,1008.92
2018-03-20T00:22:20.649Z,1008.91
2018-03-20T00:23:20.674Z,1008.87
2018-03-20T00:24:20.692Z,1008.91
2018-03-20T00:25:20.708Z,1008.89
2018-03-20T00:26:20.737Z,1008.91
2018-03-20T00:27:20.751Z,1008.93
2018-03-20T00:28:20.773Z,1008.88
2018-03-20T00:29:20.797Z,1008.86
2018-03-20T00:30:20.813Z,1008.83
2018-03-20T00:31:20.855Z,1008.84
2018-03-20T00:32:20.855Z,1008.83
2018-03-20T00:33:20.895Z,1008.87
2018-03-20T00:34:20.900Z,1008.82
2018-03-20T00:35:20.910Z,1008.82
2018-03-20T00:36:20.929Z,1008.81
2018-03-20T00:37:20.950Z,1008.80
2018-03-20T00:38:20.965Z,1008.80
2018-03-20T00:39:21.040Z,1008.80
2018-03-20T00:40:21.011Z,1008.74
2018-03-20T00:41:21.024Z,1008.76
2018-03-20T00:42:21.053Z,1008.77
2018-03-20T00:43:21.075Z,1008.75
2018-03-20T00:44:21.080Z,1008.75
2018-03-20T00:45:21.108Z,1008.73
2018-03-20T00:46:21.126Z,1008.77
2018-03-20T00:47:21.143Z,1008.75
2018-03-20T00:48:21.178Z,1008.74
2018-03-20T00:49:21.185Z,1008.74
2018-03-20T00:50:21.200Z,1008.70
2018-03-20T00:51:21.230Z,1008.73
2018-03-20T00:52:21.237Z,1008.74
2018-03-20T00:53:21.266Z,1008.74
2018-03-20T00:54:21.285Z,1008.78
2018-03-20T00:55:21.303Z,1008.74
2018-03-20T00:56:21.323Z,1008.77
2018-03-20T00:57:21.337Z,1008.76
2018-03-20T00:58:21.362Z,1008.70
2018-03-20T00:59:21.384Z,1008.74
2018-03-20T01:00:21.396Z,1008.73
2018-03-20T01:01:21.418Z,1008.72
2018-03-20T01:02:21.444Z,1008.75
2018-03-20T01:03:21.457Z,1008.71
2018-03-20T01:04:21.495Z,1008.74
2018-03-20T01:05:21.494Z,1008.74
2018-03-20T01:06:21.520Z,1008.73
2018-03-20T01:07:21.560Z,1008.73
2018-03-20T01:08:21.561Z,1008.76
2018-03-20T01:09:21.573Z,1008.72
2018-03-20T01:10:21.596Z,1008.73
2018-03-20T01:11:21.614Z,1008.71
2018-03-20T01:12:21.634Z,1008.71
2018-03-20T01:13:21.656Z,1008.70
2018-03-20T01:14:21.690Z,1008.70
2018-03-20T01:15:21.697Z,1008.66
2018-03-20T01:16:21.727Z,1008.69
2018-03-20T01:17:21.749Z,1008.62
2018-03-20T01:18:21.747Z,1008.59
2018-03-20T01:19:21.770Z,1008.58
2018-03-20T01:20:21.793Z,1008.60
2018-03-20T01:21:21.813Z,1008.58
2018-03-20T01:22:21.830Z,1008.57
2018-03-20T01:23:21.855Z,1008.57
2018-03-20T01:24:21.878Z,1008.56
2018-03-20T01:25:21.884Z,1008.56
2018-03-20T01:26:21.905Z,1008.57
2018-03-20T01:27:21.970Z,1008.55
2018-03-20T01:28:21.944Z,1008.50
2018-03-20T01:29:22.076Z,1008.51
2018-03-20T01:30:21.982Z,1008.55
2018-03-20T01:31:22.015Z,1008.53
2018-03-20T01:32:22.031Z,1008.55
2018-03-20T01:33:22.044Z,1008.54
2018-03-20T01:34:22.069Z,1008.51
2018-03-20T01:35:22.098Z,1008.50
2018-03-20T01:36:22.106Z,1008.45
2018-03-20T01:37:22.127Z,1008.41
2018-03-20T01:38:22.140Z,1008.40
2018-03-20T01:39:22.159Z,1008.36
2018-03-20T01:40:22.669Z,1008.37
2018-03-20T01:41:22.199Z,1008.32
2018-03-20T01:42:22.218Z,1008.33
2018-03-20T01:43:22.237Z,1008.32
2018-03-20T01:44:22.279Z,1008.28
2018-03-20T01:45:22.273Z,1008.27
2018-03-20T01:46:22.298Z,1008.29
2018-03-20T01:47:22.317Z,1008.31
2018-03-20T01:48:22.332Z,1008.29
2018-03-20T01:49:22.356Z,1008.30
2018-03-20T01:50:22.379Z,1008.29
2018-03-20T01:51:22.388Z,1008.26
2018-03-20T01:52:22.419Z,1008.26
2018-03-20T01:53:22.440Z,1008.26
2018-03-20T01:54:22.457Z,1008.21
2018-03-20T01:55:22.477Z,1008.18
2018-03-20T01:56:22.488Z,1008.16
2018-03-20T01:57:22.508Z,1008.13
2018-03-20T01:58:22.532Z,1008.13
2018-03-20T01:59:22.547Z,1008.16
2018-03-20T02:00:22.564Z,1008.15
2018-03-20T02:01:22.584Z,1008.13
2018-03-20T02:02:22.624Z,1008.11
2018-03-20T02:03:22.630Z,1008.11
2018-03-20T02:04:22.642Z,1008.13
2018-03-20T02:05:22.662Z,1008.08
2018-03-20T02:06:22.688Z,1008.10
2018-03-20T02:07:22.701Z,1008.08
2018-03-20T02:08:22.735Z,1008.04
2018-03-20T02:09:22.748Z,1007.98
2018-03-20T02:10:22.758Z,1007.96
2018-03-20T02:11:22.778Z,1007.93
2018-03-20T02:12:22.808Z,1007.96
2018-03-20T02:13:22.822Z,1007.93
2018-03-20T02:14:22.844Z,1007.95
2018-03-20T02:15:22.864Z,1007.90
2018-03-20T02:16:22.876Z,1007.92
2018-03-20T02:17:22.903Z,1007.92
2018-03-20T02:18:22.914Z,1007.91
2018-03-20T02:19:22.938Z,1007.93
2018-03-20T02:20:22.956Z,1007.86
2018-03-20T02:21:22.972Z,1007.90
2018-03-20T02:22:22.990Z,1007.85
2018-03-20T02:23:23.016Z,1007.88
2018-03-20T02:24:23.033Z,1007.82
2018-03-20T02:25:23.051Z,1007.85
2018-03-20T02:26:23.073Z,1007.85
2018-03-20T02:27:23.086Z,1007.85
2018-03-20T02:28:23.104Z,1007.83
2018-03-20T02:29:23.130Z,1007.81
2018-03-20T02:30:23.142Z,1007.77
2018-03-20T02:31:23.162Z,1007.75
2018-03-20T02:32:23.194Z,1007.75
2018-03-20T02:33:23.199Z,1007.77
2018-03-20T02:34:23.228Z,1007.80
2018-03-20T02:35:23.257Z,1007.78
2018-03-20T02:36:23.266Z,1007.76
2018-03-20T02:37:23.284Z,1007.77
2018-03-20T02:38:23.296Z,1007.75
2018-03-20T02:39:23.327Z,1007.74
2018-03-20T02:40:23.347Z,1007.69
2018-03-20T02:41:23.353Z,1007.72
2018-03-20T02:42:23.373Z,1007.69
2018-03-20T02:43:23.396Z,1007.73
2018-03-20T02:44:23.418Z,1007.70
2018-03-20T02:45:23.433Z,1007.73
2018-03-20T02:46:23.449Z,1007.69
2018-03-20T02:47:23.467Z,1007.67
2018-03-20T02:48:23.488Z,1007.67
2018-03-20T02:49:23.512Z,1007.67
2018-03-20T02:50:23.530Z,1007.67
2018-03-20T02:51:23.553Z,1007.64
2018-03-20T02:52:23.569Z,1007.67
2018-03-20T02:53:23.624Z,1007.58
2018-03-20T02:54:23.604Z,1007.58
2018-03-20T02:55:23.624Z,1007.55
2018-03-20T02:56:23.639Z,1007.48
2018-03-20T02:57:23.665Z,1007.49
2018-03-20T02:58:23.687Z,1007.51
2018-03-20T02:59:23.698Z,1007.49
2018-03-20T03:00:23.720Z,1007.52
2018-03-20T03:01:23.743Z,1007.51
2018-03-20T03:02:23.760Z,1007.51
2018-03-20T03:03:23.776Z,1007.52
2018-03-20T03:04:23.805Z,1007.53
2018-03-20T03:05:23.822Z,1007.53
2018-03-20T03:06:23.839Z,1007.53
2018-03-20T03:07:23.860Z,1007.55
2018-03-20T03:08:23.870Z,1007.50
2018-03-20T03:09:23.887Z,1007.50
2018-03-20T03:10:23.910Z,1007.46
2018-03-20T03:11:23.959Z,1007.46
2018-03-20T03:12:23.955Z,1007.47
2018-03-20T03:13:23.994Z,1007.41
2018-03-20T03:14:23.991Z,1007.43
2018-03-20T03:15:24.000Z,1007.38
2018-03-20T03:16:24.022Z,1007.38
2018-03-20T03:17:24.037Z,1007.38
2018-03-20T03:18:24.063Z,1007.38
2018-03-20T03:19:24.083Z,1007.37
2018-03-20T03:20:24.097Z,1007.34
2018-03-20T03:21:24.112Z,1007.28
2018-03-20T03:22:24.206Z,1007.23
2018-03-20T03:23:24.160Z,1007.23
2018-03-20T03:24:24.176Z,1007.30
2018-03-20T03:25:24.192Z,1007.26
2018-03-20T03:26:24.213Z,1007.29
2018-03-20T03:27:24.244Z,1007.25
2018-03-20T03:28:24.250Z,1007.23
2018-03-20T03:29:24.271Z,1007.24
2018-03-20T03:30:24.286Z,1007.26
2018-03-20T03:31:24.307Z,1007.24
2018-03-20T03:32:24.326Z,1007.25
2018-03-20T03:33:24.345Z,1007.26
2018-03-20T03:34:24.360Z,1007.24
2018-03-20T03:35:24.392Z,1007.21
2018-03-20T03:36:24.408Z,1007.22
2018-03-20T03:37:24.453Z,1007.19
2018-03-20T03:38:24.438Z,1007.21
2018-03-20T03:39:24.471Z,1007.24
2018-03-20T03:40:24.493Z,1007.31
2018-03-20T03:41:24.506Z,1007.30
2018-03-20T03:42:24.511Z,1007.28
2018-03-20T03:43:24.530Z,1007.26
2018-03-20T03:44:24.560Z,1007.30
2018-03-20T03:45:24.575Z,1007.34
2018-03-20T03:46:24.586Z,1007.34
2018-03-20T03:47:24.611Z,1007.38
2018-03-20T03:48:24.642Z,1007.36
2018-03-20T03:49:24.656Z,1007.36
2018-03-20T03:50:24.736Z,1007.40
2018-03-20T03:51:24.681Z,1007.44
2018-03-20T03:52:24.711Z,1007.47
2018-03-20T03:53:24.730Z,1007.53
2018-03-20T03:54:24.775Z,1007.60
2018-03-20T03:55:24.761Z,1007.62
2018-03-20T03:56:24.777Z,1007.64
2018-03-20T03:57:24.793Z,1007.66
2018-03-20T03:58:24.821Z,1007.71
2018-03-20T03:59:24.834Z,1007.72
2018-03-20T04:00:24.938Z,1007.73
2018-03-20T04:01:24.878Z,1007.72
2018-03-20T04:02:24.889Z,1007.78
2018-03-20T04:03:24.922Z,1007.75
2018-03-20T04:04:24.922Z,1007.76
2018-03-20T04:05:24.951Z,1007.75
2018-03-20T04:06:24.964Z,1007.74
2018-03-20T04:07:24.995Z,1007.74
2018-03-20T04:08:25.004Z,1007.78
2018-03-20T04:09:25.025Z,1007.80
2018-03-20T04:10:25.036Z,1007.78
2018-03-20T04:11:25.053Z,1007.78
2018-03-20T04:12:25.080Z,1007.78
2018-03-20T04:13:25.096Z,1007.76
2018-03-20T04:14:25.109Z,1007.71
2018-03-20T04:15:25.128Z,1007.72
2018-03-20T04:16:25.151Z,1007.72
2018-03-20T04:17:25.199Z,1007.69
2018-03-20T04:18:25.187Z,1007.64
2018-03-20T04:19:25.210Z,1007.66
2018-03-20T04:20:25.225Z,1007.67
2018-03-20T04:21:25.241Z,1007.65
2018-03-20T04:22:25.254Z,1007.67
2018-03-20T04:23:25.274Z,1007.66
2018-03-20T04:24:25.292Z,1007.70
2018-03-20T04:25:25.316Z,1007.72
2018-03-20T04:26:25.335Z,1007.71
2018-03-20T04:27:25.352Z,1007.73
2018-03-20T04:28:25.368Z,1007.74
2018-03-20T04:29:25.385Z,1007.75
2018-03-20T04:30:25.418Z,1007.77
2018-03-20T04:31:25.424Z,1007.76
2018-03-20T04:32:25.447Z,1007.75
2018-03-20T04:33:25.469Z,1007.77
2018-03-20T04:34:25.484Z,1007.74
2018-03-20T04:35:25.501Z,1007.76
2018-03-20T04:36:25.517Z,1007.75
2018-03-20T04:37:25.552Z,1007.75
2018-03-20T04:38:25.552Z,1007.75
2018-03-20T04:39:25.580Z,1007.72
2018-03-20T04:40:25.598Z,1007.73
2018-03-20T04:41:25.609Z,1007.70
2018-03-20T04:42:25.637Z,1007.65
2018-03-20T04:43:25.655Z,1007.65
2018-03-20T04:44:25.678Z,1007.63
2018-03-20T04:45:25.688Z,1007.61
2018-03-20T04:46:25.716Z,1007.62
2018-03-20T04:47:25.728Z,1007.61
2018-03-20T04:48:25.756Z,1007.64
2018-03-20T04:49:25.756Z,1007.60
2018-03-20T04:50:25.776Z,1007.56
2018-03-20T04:51:25.797Z,1007.57
2018-03-20T04:52:25.821Z,1007.56
2018-03-20T04:53:25.841Z,1007.58
2018-03-20T04:54:25.854Z,1007.53
2018-03-20T04:55:25.879Z,1007.56
2018-03-20T04:56:25.892Z,1007.51
2018-03-20T04:57:25.915Z,1007.52
2018-03-20T04:58:25.926Z,1007.51
2018-03-20T04:59:25.947Z,1007.54
2018-03-20T05:00:25.962Z,1007.55
2018-03-20T05:01:25.987Z,1007.55
2018-03-20T05:02:26.006Z,1007.56
2018-03-20T05:03:26.018Z,1007.53
2018-03-20T05:04:26.041Z,1007.53
2018-03-20T05:05:26.061Z,1007.55
2018-03-20T05:06:26.152Z,1007.55
2018-03-20T05:07:26.109Z,1007.55
2018-03-20T05:08:26.185Z,1007.57
2018-03-20T05:09:26.128Z,1007.54
2018-03-20T05:10:26.155Z,1007.53
2018-03-20T05:11:26.167Z,1007.49
2018-03-20T05:12:26.187Z,1007.53
2018-03-20T05:13:26.208Z,1007.48
2018-03-20T05:14:26.224Z,1007.51
2018-03-20T05:15:26.254Z,1007.48
2018-03-20T05:16:26.260Z,1007.45
2018-03-20T05:17:26.279Z,1007.46
2018-03-20T05:18:26.301Z,1007.43
2018-03-20T05:19:26.358Z,1007.45
2018-03-20T05:20:26.333Z,1007.50
2018-03-20T05:21:26.357Z,1007.48
2018-03-20T05:22:26.406Z,1007.47
2018-03-20T05:23:26.390Z,1007.45
2018-03-20T05:24:26.424Z,1007.46
2018-03-20T05:25:26.430Z,1007.41
2018-03-20T05:26:26.453Z,1007.43
2018-03-20T05:27:26.464Z,1007.42
2018-03-20T05:28:26.495Z,1007.43
2018-03-20T05:29:26.505Z,1007.43
2018-03-20T05:30:26.532Z,1007.45
2018-03-20T05:31:26.549Z,1007.46
2018-03-20T05:32:26.575Z,1007.43
2018-03-20T05:33:26.580Z,1007.45
2018-03-20T05:34:26.654Z,1007.39
2018-03-20T05:35:26.624Z,1007.41
2018-03-20T05:36:26.634Z,1007.38
2018-03-20T05:37:26.669Z,1007.38
2018-03-20T05:38:26.693Z,1007.38
2018-03-20T05:39:26.692Z,1007.36
2018-03-20T05:40:26.711Z,1007.33
2018-03-20T05:41:26.724Z,1007.36
2018-03-20T05:42:26.810Z,1007.41
2018-03-20T05:43:26.771Z,1007.40
2018-03-20T05:44:26.777Z,1007.42
2018-03-20T05:45:26.820Z,1007.46
2018-03-20T05:46:26.838Z,1007.48
2018-03-20T05:47:26.834Z,1007.47
2018-03-20T05:48:26.859Z,1007.48
2018-03-20T05:49:26.876Z,1007.50
2018-03-20T05:50:26.889Z,1007.53
2018-03-20T05:51:26.914Z,1007.56
2018-03-20T05:52:26.934Z,1007.58
2018-03-20T05:53:26.953Z,1007.52
2018-03-20T05:54:26.965Z,1007.55
2018-03-20T05:55:26.997Z,1007.55
2018-03-20T05:56:27.005Z,1007.57
2018-03-20T05:57:27.017Z,1007.58
2018-03-20T05:58:27.040Z,1007.56
2018-03-20T05:59:27.052Z,1007.55
2018-03-20T06:00:27.069Z,1007.52
2018-03-20T06:01:27.100Z,1007.49
2018-03-20T06:02:27.117Z,1007.48
2018-03-20T06:03:27.126Z,1007.51
2018-03-20T06:05:27.161Z,1007.51
2018-03-20T06:06:27.186Z,1007.56
2018-03-20T06:07:27.206Z,1007.58
2018-03-20T06:08:27.214Z,1007.59
2018-03-20T06:09:27.231Z,1007.60
2018-03-20T06:10:27.258Z,1007.62
2018-03-20T06:11:27.269Z,1007.64
2018-03-20T06:12:27.295Z,1007.64
2018-03-20T06:13:27.315Z,1007.69
2018-03-20T06:14:27.324Z,1007.68
2018-03-20T06:15:27.355Z,1007.66
2018-03-20T06:16:27.467Z,1007.65
2018-03-20T06:17:27.434Z,1007.66
2018-03-20T06:18:27.407Z,1007.68
2018-03-20T06:19:27.423Z,1007.60
2018-03-20T06:20:27.434Z,1007.65
2018-03-20T06:21:27.464Z,1007.61
2018-03-20T06:22:27.486Z,1007.63
2018-03-20T06:23:27.495Z,1007.61
2018-03-20T06:24:27.512Z,1007.62
2018-03-20T06:25:27.530Z,1007.65
2018-03-20T06:26:27.558Z,1007.69
2018-03-20T06:27:27.563Z,1007.68
2018-03-20T06:28:27.598Z,1007.67
2018-03-20T06:29:27.612Z,1007.70
2018-03-20T06:30:27.633Z,1007.69
2018-03-20T06:31:27.641Z,1007.68
2018-03-20T06:32:27.661Z,1007.67
2018-03-20T06:33:27.776Z,1007.71
2018-03-20T06:34:27.693Z,1007.66
2018-03-20T06:35:27.731Z,1007.69
2018-03-20T06:36:27.739Z,1007.67
2018-03-20T06:37:27.781Z,1007.68
2018-03-20T06:38:27.775Z,1007.68
2018-03-20T06:39:27.791Z,1007.68
2018-03-20T06:40:27.807Z,1007.68
2018-03-20T06:41:27.831Z,1007.68
2018-03-20T06:42:27.842Z,1007.68
2018-03-20T06:43:27.870Z,1007.72
2018-03-20T06:44:27.899Z,1007.74
2018-03-20T06:45:27.905Z,1007.74
2018-03-20T06:46:27.912Z,1007.71
2018-03-20T06:47:27.931Z,1007.76
2018-03-20T06:48:27.954Z,1007.77
2018-03-20T06:49:27.976Z,1007.82
2018-03-20T06:50:28.048Z,1007.77
2018-03-20T06:51:28.010Z,1007.81
2018-03-20T06:52:28.093Z,1007.85
2018-03-20T06:53:28.058Z,1007.89
2018-03-20T06:54:28.068Z,1007.90
2018-03-20T06:55:28.082Z,1007.87
2018-03-20T06:56:28.099Z,1007.93
2018-03-20T06:57:28.116Z,1007.92
2018-03-20T06:58:28.137Z,1007.94
2018-03-20T06:59:28.216Z,1007.92
2018-03-20T07:00:28.172Z,1007.96
2018-03-20T07:01:28.198Z,1007.99
2018-03-20T07:02:28.208Z,1007.98
2018-03-20T07:03:28.251Z,1008.00
2018-03-20T07:04:28.246Z,1008.01
2018-03-20T07:05:28.351Z,1008.00
2018-03-20T07:06:28.285Z,1008.04
2018-03-20T07:07:28.323Z,1008.06
2018-03-20T07:08:28.330Z,1008.02
2018-03-20T07:09:28.339Z,1008.07
2018-03-20T07:10:28.358Z,1008.05
2018-03-20T07:11:28.394Z,1008.10
2018-03-20T07:12:28.394Z,1008.08
2018-03-20T07:13:28.429Z,1008.14
2018-03-20T07:14:28.435Z,1008.13
2018-03-20T07:15:28.450Z,1008.13
2018-03-20T07:16:28.476Z,1008.16
2018-03-20T07:17:28.493Z,1008.14
2018-03-20T07:18:29.147Z,1008.16
2018-03-20T07:19:28.542Z,1008.15
2018-03-20T07:20:28.552Z,1008.16
2018-03-20T07:21:28.567Z,1008.15
2018-03-20T07:22:28.596Z,1008.23
2018-03-20T07:23:28.596Z,1008.23
2018-03-20T07:24:28.634Z,1008.20
2018-03-20T07:25:28.646Z,1008.20
2018-03-20T07:26:28.666Z,1008.23
2018-03-20T07:27:28.678Z,1008.24
2018-03-20T07:28:28.718Z,1008.26
2018-03-20T07:29:28.730Z,1008.26
2018-03-20T07:30:28.733Z,1008.26
2018-03-20T07:31:28.875Z,1008.27
2018-03-20T07:32:28.792Z,1008.28
2018-03-20T07:33:28.818Z,1008.29
2018-03-20T07:34:28.837Z,1008.31
2018-03-20T07:35:28.827Z,1008.29
2018-03-20T07:36:28.848Z,1008.34
2018-03-20T07:37:28.871Z,1008.34
2018-03-20T07:38:28.887Z,1008.35
2018-03-20T07:39:28.912Z,1008.37
2018-03-20T07:40:28.919Z,1008.39
2018-03-20T07:41:28.940Z,1008.38
2018-03-20T07:42:28.969Z,1008.42
2018-03-20T07:43:28.978Z,1008.45
2018-03-20T07:44:29.026Z,1008.43
2018-03-20T07:45:29.046Z,1008.44
2018-03-20T07:46:29.053Z,1008.45
2018-03-20T07:47:29.058Z,1008.45
2018-03-20T07:48:29.101Z,1008.46
2018-03-20T07:49:29.738Z,1008.45
2018-03-20T07:50:29.122Z,1008.50
2018-03-20T07:51:29.136Z,1008.53
2018-03-20T07:52:29.165Z,1008.53
2018-03-20T07:53:29.186Z,1008.53
2018-03-20T07:54:29.206Z,1008.52
2018-03-20T07:55:29.231Z,1008.55
2018-03-20T07:56:29.276Z,1008.54
2018-03-20T07:57:29.257Z,1008.51
2018-03-20T07:58:29.267Z,1008.52
2018-03-20T07:59:29.286Z,1008.56
2018-03-20T08:00:29.316Z,1008.60
2018-03-20T08:01:29.333Z,1008.57
2018-03-20T08:02:29.351Z,1008.57
2018-03-20T08:03:29.357Z,1008.59
2018-03-20T08:04:29.386Z,1008.62
2018-03-20T08:05:29.432Z,1008.64
2018-03-20T08:06:29.432Z,1008.64
2018-03-20T08:07:29.447Z,1008.66
2018-03-20T08:08:29.469Z,1008.68
2018-03-20T08:09:29.509Z,1008.68
2018-03-20T08:10:29.500Z,1008.70
2018-03-20T08:11:29.526Z,1008.70
2018-03-20T08:12:29.555Z,1008.76
2018-03-20T08:13:29.559Z,1008.75
2018-03-20T08:14:29.590Z,1008.76
2018-03-20T08:15:29.600Z,1008.79
2018-03-20T08:16:29.641Z,1008.80
2018-03-20T08:17:29.645Z,1008.84
2018-03-20T08:18:29.652Z,1008.85
2018-03-20T08:19:29.828Z,1008.88
2018-03-20T08:20:29.695Z,1008.88
2018-03-20T08:21:29.706Z,1008.93
2018-03-20T08:22:29.724Z,1008.95
2018-03-20T08:23:29.757Z,1008.96
2018-03-20T08:24:29.762Z,1008.97
2018-03-20T08:25:29.797Z,1008.99
2018-03-20T08:26:29.808Z,1009.02
2018-03-20T08:27:29.821Z,1009.03
2018-03-20T08:28:29.844Z,1009.02
2018-03-20T08:29:29.868Z,1009.04
2018-03-20T08:30:29.880Z,1009.04
2018-03-20T08:31:29.901Z,1009.06
2018-03-20T08:32:29.921Z,1009.08
2018-03-20T08:33:29.946Z,1009.10
2018-03-20T08:34:29.961Z,1009.10
2018-03-20T08:35:29.980Z,1009.12
2018-03-20T08:36:29.992Z,1009.14
2018-03-20T08:37:30.019Z,1009.14
2018-03-20T08:38:30.042Z,1009.14
2018-03-20T08:39:30.052Z,1009.17
2018-03-20T08:40:30.084Z,1009.18
2018-03-20T08:41:30.087Z,1009.21
2018-03-20T08:42:30.111Z,1009.23
2018-03-20T08:43:30.130Z,1009.28
2018-03-20T08:44:30.149Z,1009.25
2018-03-20T08:45:30.164Z,1009.29
2018-03-20T08:46:30.190Z,1009.30
2018-03-20T08:47:30.332Z,1009.30
2018-03-20T08:48:30.230Z,1009.32
2018-03-20T08:49:30.262Z,1009.33
2018-03-20T08:50:30.269Z,1009.38
2018-03-20T08:51:30.286Z,1009.39
2018-03-20T08:52:30.303Z,1009.41
2018-03-20T08:53:30.318Z,1009.45
2018-03-20T08:54:30.341Z,1009.45
2018-03-20T08:55:30.358Z,1009.46
2018-03-20T08:56:30.376Z,1009.43
2018-03-20T08:57:30.396Z,1009.47
2018-03-20T08:58:30.435Z,1009.48
2018-03-20T08:59:30.451Z,1009.52
2018-03-20T09:00:30.512Z,1009.48
2018-03-20T09:01:30.481Z,1009.53
2018-03-20T09:02:30.522Z,1009.53
2018-03-20T09:03:30.516Z,1009.52
2018-03-20T09:04:30.532Z,1009.55
2018-03-20T09:05:30.553Z,1009.55
2018-03-20T09:06:30.570Z,1009.57
2018-03-20T09:07:30.588Z,1009.59
2018-03-20T09:08:30.605Z,1009.62
2018-03-20T09:09:30.641Z,1009.66
2018-03-20T09:10:30.654Z,1009.63
2018-03-20T09:11:30.668Z,1009.68
2018-03-20T09:12:30.753Z,1009.64
2018-03-20T09:13:30.716Z,1009.66
2018-03-20T09:14:30.729Z,1009.69
2018-03-20T09:15:30.752Z,1009.73
2018-03-20T09:16:30.764Z,1009.70
2018-03-20T09:17:30.793Z,1009.71
2018-03-20T09:18:30.805Z,1009.76
2018-03-20T09:19:30.824Z,1009.75
2018-03-20T09:20:30.845Z,1009.81
2018-03-20T09:21:30.866Z,1009.80
2018-03-20T09:22:30.898Z,1009.80
2018-03-20T09:23:30.917Z,1009.88
2018-03-20T09:24:30.977Z,1009.86
2018-03-20T09:25:30.943Z,1009.90
2018-03-20T09:26:30.990Z,1009.89
2018-03-20T09:27:30.977Z,1009.89
2018-03-20T09:28:31.004Z,1009.90
2018-03-20T09:29:31.023Z,1009.90
2018-03-20T09:30:31.044Z,1009.94
2018-03-20T09:31:31.056Z,1009.93
2018-03-20T09:32:31.077Z,1009.93
2018-03-20T09:33:31.099Z,1010.02
2018-03-20T09:34:31.122Z,1010.00
2018-03-20T09:35:31.143Z,1009.99
2018-03-20T09:36:31.162Z,1010.02
2018-03-20T09:37:31.188Z,1010.03
2018-03-20T09:38:31.204Z,1010.02
2018-03-20T09:39:31.215Z,1010.09
2018-03-20T09:40:31.242Z,1010.10
2018-03-20T09:41:31.263Z,1010.09
2018-03-20T09:42:31.281Z,1010.12
2018-03-20T09:43:31.301Z,1010.15
2018-03-20T09:44:31.339Z,1010.16
2018-03-20T09:45:31.342Z,1010.17
2018-03-20T09:46:31.371Z,1010.20
2018-03-20T09:47:31.382Z,1010.22
2018-03-20T09:48:31.405Z,1010.20
2018-03-20T09:49:31.422Z,1010.23
2018-03-20T09:50:31.440Z,1010.23
2018-03-20T09:51:31.465Z,1010.27
2018-03-20T09:52:31.491Z,1010.28
2018-03-20T09:53:31.504Z,1010.35
2018-03-20T09:54:31.536Z,1010.32
2018-03-20T09:55:31.548Z,1010.30
2018-03-20T09:56:31.566Z,1010.34
2018-03-20T09:57:31.596Z,1010.37
2018-03-20T09:58:31.603Z,1010.35
2018-03-20T09:59:31.626Z,1010.42
2018-03-20T10:00:31.653Z,1010.41
2018-03-20T10:01:31.663Z,1010.43
2018-03-20T10:02:31.686Z,1010.45
2018-03-20T10:03:31.708Z,1010.46
2018-03-20T10:04:31.727Z,1010.45
2018-03-20T10:05:31.757Z,1010.46
2018-03-20T10:06:31.759Z,1010.47
2018-03-20T10:07:31.806Z,1010.47
2018-03-20T10:08:31.819Z,1010.48
2018-03-20T10:09:31.836Z,1010.52
2018-03-20T10:10:31.855Z,1010.55
2018-03-20T10:11:31.865Z,1010.53
2018-03-20T10:12:31.894Z,1010.54
2018-03-20T10:13:31.904Z,1010.55
2018-03-20T10:14:31.935Z,1010.53
2018-03-20T10:15:31.958Z,1010.55
2018-03-20T10:16:31.969Z,1010.55
2018-03-20T10:17:31.992Z,1010.58
2018-03-20T10:18:32.026Z,1010.58
2018-03-20T10:19:32.048Z,1010.60
2018-03-20T10:20:32.057Z,1010.63
2018-03-20T10:21:32.070Z,1010.61
2018-03-20T10:22:32.090Z,1010.66
2018-03-20T10:23:32.128Z,1010.64
2018-03-20T10:24:32.134Z,1010.66
2018-03-20T10:25:32.170Z,1010.71
2018-03-20T10:26:32.186Z,1010.70
2018-03-20T10:27:32.331Z,1010.73
2018-03-20T10:28:32.215Z,1010.76
2018-03-20T10:29:32.354Z,1010.79
2018-03-20T10:30:32.266Z,1010.79
2018-03-20T10:31:32.286Z,1010.84
2018-03-20T10:32:32.304Z,1010.82
2018-03-20T10:33:32.322Z,1010.81
2018-03-20T10:34:32.343Z,1010.87
2018-03-20T10:35:32.373Z,1010.84
2018-03-20T10:36:32.386Z,1010.86
2018-03-20T10:37:32.414Z,1010.90
2018-03-20T10:38:32.427Z,1010.90
2018-03-20T10:39:32.462Z,1010.97
2018-03-20T10:40:32.549Z,1010.97
2018-03-20T10:41:32.530Z,1010.98
2018-03-20T10:42:32.535Z,1011.00
2018-03-20T10:43:32.536Z,1011.02
2018-03-20T10:44:32.563Z,1011.03
2018-03-20T10:45:32.585Z,1011.06
2018-03-20T10:46:32.598Z,1011.07
2018-03-20T10:47:32.627Z,1011.07
2018-03-20T10:48:32.650Z,1011.12
2018-03-20T10:49:32.665Z,1011.10
2018-03-20T10:50:32.686Z,1011.11
2018-03-20T10:51:32.700Z,1011.12
2018-03-20T10:52:32.720Z,1011.16
2018-03-20T10:53:32.818Z,1011.16
2018-03-20T10:54:32.766Z,1011.14
2018-03-20T10:55:32.788Z,1011.17
2018-03-20T10:56:32.803Z,1011.16
2018-03-20T10:57:32.827Z,1011.17
2018-03-20T10:58:32.848Z,1011.20
2018-03-20T10:59:32.867Z,1011.24
2018-03-20T11:00:32.889Z,1011.23
2018-03-20T11:01:32.979Z,1011.26
2018-03-20T11:02:32.927Z,1011.24
2018-03-20T11:03:32.947Z,1011.28
2018-03-20T11:04:32.974Z,1011.29
2018-03-20T11:05:32.991Z,1011.30
2018-03-20T11:06:33.025Z,1011.38
2018-03-20T11:07:33.029Z,1011.32
2018-03-20T11:08:33.050Z,1011.36
2018-03-20T11:09:33.078Z,1011.40
2018-03-20T11:10:33.098Z,1011.35
2018-03-20T11:11:33.131Z,1011.39
2018-03-20T11:12:33.133Z,1011.40
2018-03-20T11:13:33.161Z,1011.40
2018-03-20T11:14:33.172Z,1011.44
2018-03-20T11:15:33.201Z,1011.46
2018-03-20T11:16:33.221Z,1011.49
2018-03-20T11:17:33.242Z,1011.49
2018-03-20T11:18:33.253Z,1011.52
2018-03-20T11:19:33.279Z,1011.55
2018-03-20T11:20:33.306Z,1011.54
2018-03-20T11:21:33.320Z,1011.60
2018-03-20T11:22:33.337Z,1011.61
2018-03-20T11:23:33.369Z,1011.63
2018-03-20T11:24:33.379Z,1011.60
2018-03-20T11:25:33.405Z,1011.62
2018-03-20T11:26:33.420Z,1011.66
2018-03-20T11:27:33.445Z,1011.69
2018-03-20T11:28:33.476Z,1011.74
2018-03-20T11:29:33.482Z,1011.74
2018-03-20T11:30:33.515Z,1011.75
2018-03-20T11:31:33.528Z,1011.78
2018-03-20T11:32:33.562Z,1011.78
2018-03-20T11:33:33.580Z,1011.80
2018-03-20T11:34:33.586Z,1011.84
2018-03-20T11:35:33.625Z,1011.84
2018-03-20T11:36:33.635Z,1011.87
2018-03-20T11:37:33.651Z,1011.84
2018-03-20T11:38:33.688Z,1011.92
2018-03-20T11:39:33.717Z,1011.90
2018-03-20T11:40:33.714Z,1011.89
2018-03-20T11:41:33.738Z,1011.89
2018-03-20T11:42:33.752Z,1011.90
2018-03-20T11:43:33.781Z,1011.93
2018-03-20T11:44:33.802Z,1011.91
2018-03-20T11:45:33.812Z,1011.94
2018-03-20T11:46:33.834Z,1011.93
2018-03-20T11:47:33.870Z,1011.95
2018-03-20T11:48:33.877Z,1011.97
2018-03-20T11:49:33.949Z,1011.96
2018-03-20T11:50:33.920Z,1011.95
2018-03-20T11:51:33.938Z,1011.96
2018-03-20T11:52:33.963Z,1012.01
2018-03-20T11:53:33.984Z,1011.98
2018-03-20T11:54:34.007Z,1012.01
2018-03-20T11:55:34.023Z,1012.01
2018-03-20T11:56:34.052Z,1012.04
2018-03-20T11:57:34.080Z,1012.08
2018-03-20T11:58:34.091Z,1012.05
2018-03-20T11:59:34.114Z,1012.07
2018-03-20T12:00:34.126Z,1012.10
2018-03-20T12:01:34.147Z,1012.16
2018-03-20T12:02:34.171Z,1012.15
2018-03-20T12:03:34.188Z,1012.16
2018-03-20T12:04:34.208Z,1012.17
2018-03-20T12:05:34.230Z,1012.18
2018-03-20T12:06:34.259Z,1012.15